createdAt,value
2022-08-22T00:02:48.149Z,53.67
2022-08-22T00:02:52.695Z,52.55
2022-08-22T04:15:09.959Z,84.22
2022-08-22T04:16:10.003Z,84.32
2022-08-22T04:17:09.923Z,84.42
2022-08-22T04:18:10.087Z,84.52
2022-08-22T04:19:09.885Z,84.52
2022-08-22T04:20:09.917Z,84.52
2022-08-22T04:21:09.866Z,84.52
2022-08-22T04:22:09.958Z,84.52
2022-08-22T04:23:09.849Z,84.66
2022-08-22T04:24:09.841Z,84.77
2022-08-22T04:25:09.817Z,84.87
2022-08-22T04:26:12.256Z,84.97
2022-08-22T04:27:09.807Z,85.27
2022-08-22T04:28:09.863Z,85.47
2022-08-22T04:29:09.780Z,85.68
2022-08-22T04:30:09.808Z,85.98
2022-08-22T04:31:09.757Z,86.59
2022-08-22T04:32:14.015Z,86.90
2022-08-22T04:33:09.737Z,87.20
2022-08-22T04:34:09.751Z,87.30
2022-08-22T04:35:09.717Z,87.20
2022-08-22T04:36:09.698Z,87.30
2022-08-22T04:37:09.715Z,87.30
2022-08-22T04:38:09.767Z,87.40
2022-08-22T04:39:09.669Z,87.61
2022-08-22T04:40:09.862Z,87.51
2022-08-22T04:41:09.650Z,87.61
2022-08-22T04:42:31.301Z,87.61
2022-08-22T04:43:10.639Z,87.71
2022-08-22T04:44:09.721Z,87.71
2022-08-22T04:45:09.641Z,87.61
2022-08-22T04:46:09.611Z,87.61
2022-08-22T04:47:09.601Z,87.61
2022-08-22T04:48:09.562Z,87.51
2022-08-22T04:49:09.562Z,87.40
2022-08-22T04:50:09.561Z,87.40
2022-08-22T04:51:09.533Z,87.30
2022-08-22T04:52:09.794Z,87.30
2022-08-22T04:53:09.512Z,87.26
2022-08-22T04:54:09.552Z,87.26
2022-08-22T04:55:09.492Z,87.26
2022-08-22T04:56:09.566Z,87.26
2022-08-22T04:57:09.485Z,87.16
2022-08-22T04:58:09.480Z,87.06
2022-08-22T04:59:09.454Z,87.06
2022-08-22T05:00:09.470Z,87.06
2022-08-22T05:01:09.443Z,86.96
2022-08-22T05:02:09.544Z,86.86
2022-08-22T05:03:09.406Z,86.76
2022-08-22T05:04:09.425Z,86.65
2022-08-22T05:05:13.232Z,86.55
2022-08-22T05:06:09.504Z,86.55
2022-08-22T05:07:09.372Z,86.45
2022-08-22T05:08:09.366Z,86.31
2022-08-22T05:09:11.864Z,86.31
2022-08-22T05:10:12.478Z,86.31
2022-08-22T05:11:09.316Z,86.31
2022-08-22T05:12:09.468Z,86.41
2022-08-22T05:13:09.317Z,86.41
2022-08-22T05:14:09.408Z,86.31
2022-08-22T05:15:09.819Z,86.31
2022-08-22T05:16:09.278Z,86.31
2022-08-22T05:17:09.272Z,86.31
2022-08-22T05:18:09.288Z,86.21
2022-08-22T05:19:13.132Z,86.21
2022-08-22T05:20:10.341Z,86.21
2022-08-22T05:21:09.208Z,86.21
2022-08-22T05:22:09.260Z,86.16
2022-08-22T05:23:17.089Z,86.07
2022-08-22T05:24:10.293Z,86.07
2022-08-22T05:25:09.186Z,86.07
2022-08-22T05:26:09.260Z,85.96
2022-08-22T05:27:09.159Z,85.96
2022-08-22T05:28:09.130Z,85.96
2022-08-22T05:29:09.130Z,85.86
2022-08-22T05:30:09.121Z,85.86
2022-08-22T05:31:09.102Z,85.86
2022-08-22T05:32:09.112Z,85.86
2022-08-22T05:33:09.091Z,85.86
2022-08-22T05:34:09.076Z,85.86
2022-08-22T05:35:09.064Z,85.76
2022-08-22T05:36:09.064Z,85.72
2022-08-22T05:37:09.033Z,85.72
2022-08-22T05:38:09.236Z,85.72
2022-08-22T05:39:09.014Z,85.72
2022-08-22T05:40:09.132Z,85.72
2022-08-22T05:41:08.995Z,85.72
2022-08-22T05:42:08.984Z,85.72
2022-08-22T05:43:08.985Z,85.72
2022-08-22T05:44:09.024Z,85.82
2022-08-22T05:45:12.243Z,85.62
2022-08-22T05:46:09.007Z,85.58
2022-08-22T05:47:09.004Z,85.58
2022-08-22T05:48:09.044Z,85.58
2022-08-22T05:49:08.909Z,85.27
2022-08-22T05:50:08.924Z,84.77
2022-08-22T05:51:08.887Z,84.27
2022-08-22T05:52:08.953Z,84.06
2022-08-22T05:53:08.897Z,83.86
2022-08-22T05:54:08.876Z,83.72
2022-08-22T05:55:08.848Z,83.82
2022-08-22T05:56:08.886Z,83.82
2022-08-22T05:57:08.820Z,83.82
2022-08-22T05:58:09.060Z,83.72
2022-08-22T05:59:08.850Z,83.72
2022-08-22T06:00:08.779Z,83.58
2022-08-22T06:01:08.790Z,83.58
2022-08-22T06:02:08.883Z,83.58
2022-08-22T06:03:08.788Z,83.68
2022-08-22T06:04:08.794Z,83.94
2022-08-22T06:05:12.048Z,84.34
2022-08-22T06:06:08.720Z,84.65
2022-08-22T06:07:08.726Z,84.61
2022-08-22T06:08:08.761Z,84.41
2022-08-22T06:09:08.692Z,83.76
2022-08-22T06:10:08.722Z,83.01
2022-08-22T06:11:08.686Z,81.96
2022-08-22T06:12:08.747Z,80.82
2022-08-22T06:13:11.501Z,79.87
2022-08-22T06:14:08.694Z,78.72
2022-08-22T06:15:12.358Z,77.48
2022-08-22T06:16:09.385Z,76.34
2022-08-22T06:17:08.624Z,73.88
2022-08-22T06:18:08.624Z,73.24
2022-08-22T06:19:19.104Z,72.30
2022-08-22T06:20:09.737Z,71.67
2022-08-22T06:21:08.593Z,71.16
2022-08-22T06:22:08.570Z,71.23
2022-08-22T06:23:08.547Z,70.79
2022-08-22T06:24:08.529Z,69.96
2022-08-22T06:25:08.545Z,69.53
2022-08-22T06:26:20.395Z,68.79
2022-08-22T06:27:09.506Z,67.65
2022-08-22T06:28:08.558Z,67.12
2022-08-22T06:29:08.479Z,66.78
2022-08-22T06:30:08.507Z,65.99
2022-08-22T06:31:08.458Z,65.45
2022-08-22T06:32:08.488Z,65.02
2022-08-22T06:33:08.429Z,64.62
2022-08-22T06:34:08.442Z,64.49
2022-08-22T06:35:08.411Z,62.46
2022-08-22T06:36:08.432Z,62.37
2022-08-22T06:37:08.402Z,62.34
2022-08-22T06:38:08.543Z,61.71
2022-08-22T06:39:08.363Z,61.08
2022-08-22T06:40:08.465Z,60.25
2022-08-22T06:41:08.353Z,59.32
2022-08-22T06:42:09.566Z,58.50
2022-08-22T06:43:08.323Z,57.00
2022-08-22T06:44:08.343Z,57.23
2022-08-22T06:45:08.307Z,59.91
2022-08-22T06:46:08.285Z,61.26
2022-08-22T06:47:08.296Z,63.45
2022-08-22T06:48:08.278Z,64.42
2022-08-22T06:49:08.260Z,64.95
2022-08-22T06:50:10.866Z,66.25
2022-08-22T06:51:09.237Z,66.45
2022-08-22T06:52:08.258Z,65.05
2022-08-22T06:53:08.218Z,64.95
2022-08-22T06:54:08.198Z,65.55
2022-08-22T06:55:08.199Z,65.55
2022-08-22T06:56:08.726Z,67.05
2022-08-22T06:57:08.187Z,66.32
2022-08-22T06:58:08.190Z,65.19
2022-08-22T06:59:08.162Z,64.78
2022-08-22T07:00:08.228Z,64.51
2022-08-22T07:01:12.052Z,64.42
2022-08-22T07:02:08.277Z,65.62
2022-08-22T07:03:08.115Z,65.62
2022-08-22T07:04:08.124Z,65.48
2022-08-22T07:05:08.105Z,64.36
2022-08-22T07:06:08.126Z,65.45
2022-08-22T07:07:08.084Z,63.92
2022-08-22T07:08:08.065Z,63.29
2022-08-22T07:09:08.053Z,62.79
2022-08-22T07:10:08.046Z,62.46
2022-08-22T07:11:08.027Z,61.76
2022-08-22T07:12:08.154Z,61.46
2022-08-22T07:13:08.009Z,61.87
2022-08-22T07:14:08.068Z,62.19
2022-08-22T07:15:07.977Z,62.49
2022-08-22T07:16:07.989Z,62.49
2022-08-22T07:17:07.989Z,63.29
2022-08-22T07:18:07.998Z,62.70
2022-08-22T07:19:07.939Z,62.37
2022-08-22T07:20:07.974Z,62.16
2022-08-22T07:21:07.921Z,61.73
2022-08-22T07:22:07.917Z,61.73
2022-08-22T07:23:07.911Z,61.71
2022-08-22T07:24:08.052Z,61.27
2022-08-22T07:25:07.881Z,60.55
2022-08-22T07:26:07.923Z,58.95
2022-08-22T07:27:07.855Z,59.05
2022-08-22T07:28:07.866Z,59.55
2022-08-22T07:29:11.274Z,59.35
2022-08-22T07:30:10.158Z,58.95
2022-08-22T07:31:07.815Z,59.95
2022-08-22T07:32:07.854Z,59.85
2022-08-22T07:33:26.275Z,60.15
2022-08-22T07:34:08.877Z,59.95
2022-08-22T07:35:07.781Z,59.85
2022-08-22T07:36:07.808Z,59.75
2022-08-22T07:37:07.748Z,60.25
2022-08-22T07:38:07.760Z,60.35
2022-08-22T07:39:07.731Z,59.32
2022-08-22T07:40:07.862Z,59.65
2022-08-22T07:41:07.720Z,60.42
2022-08-22T07:42:08.287Z,59.42
2022-08-22T07:43:07.712Z,59.02
2022-08-22T07:44:07.856Z,58.50
2022-08-22T07:45:07.676Z,58.89
2022-08-22T07:46:07.671Z,58.70
2022-08-22T07:47:07.660Z,58.57
2022-08-22T07:48:07.705Z,58.27
2022-08-22T07:49:09.467Z,57.87
2022-08-22T07:50:07.658Z,58.20
2022-08-22T07:51:07.616Z,58.70
2022-08-22T07:52:07.609Z,58.50
2022-08-22T07:53:07.660Z,58.59
2022-08-22T07:54:07.881Z,58.50
2022-08-22T07:55:07.568Z,57.87
2022-08-22T07:56:07.579Z,57.67
2022-08-22T07:57:08.554Z,57.17
2022-08-22T07:58:07.612Z,57.67
2022-08-22T07:59:13.067Z,57.67
2022-08-22T08:00:08.562Z,57.77
2022-08-22T08:01:07.555Z,57.77
2022-08-22T08:02:07.524Z,59.66
2022-08-22T08:03:07.538Z,57.07
2022-08-22T08:04:07.484Z,56.18
2022-08-22T08:05:07.471Z,57.60
2022-08-22T08:06:07.500Z,58.20
2022-08-22T08:07:07.487Z,57.70
2022-08-22T08:08:07.495Z,57.50
2022-08-22T08:09:07.424Z,57.47
2022-08-22T08:10:11.258Z,56.75
2022-08-22T08:11:08.406Z,56.15
2022-08-22T08:12:07.487Z,55.98
2022-08-22T08:13:07.406Z,57.97
2022-08-22T08:14:07.418Z,58.47
2022-08-22T08:15:07.368Z,59.14
2022-08-22T08:16:07.441Z,56.55
2022-08-22T08:17:07.381Z,57.47
2022-08-22T08:18:07.438Z,56.68
2022-08-22T08:19:07.330Z,56.90
2022-08-22T08:20:07.422Z,57.17
2022-08-22T08:21:07.342Z,57.24
2022-08-22T08:22:07.419Z,55.57
2022-08-22T08:23:07.310Z,54.08
2022-08-22T08:24:07.295Z,54.01
2022-08-22T08:25:07.273Z,54.83
2022-08-22T08:26:07.278Z,54.24
2022-08-22T08:27:07.287Z,54.13
2022-08-22T08:28:07.283Z,55.16
2022-08-22T08:29:07.241Z,53.86
2022-08-22T08:30:09.213Z,55.65
2022-08-22T08:31:07.225Z,54.33
2022-08-22T08:32:07.259Z,54.06
2022-08-22T08:33:24.803Z,55.33
2022-08-22T08:34:08.233Z,53.09
2022-08-22T08:35:07.189Z,52.26
2022-08-22T08:36:07.432Z,52.19
2022-08-22T08:37:07.171Z,53.81
2022-08-22T08:38:07.208Z,54.13
2022-08-22T08:39:07.142Z,55.28
2022-08-22T08:40:07.212Z,55.11
2022-08-22T08:41:07.129Z,56.43
2022-08-22T08:42:07.137Z,56.76
2022-08-22T08:43:10.687Z,57.88
2022-08-22T08:44:07.125Z,58.61
2022-08-22T08:45:07.084Z,58.28
2022-08-22T08:46:07.172Z,58.31
2022-08-22T08:47:07.075Z,58.11
2022-08-22T08:48:07.125Z,59.01
2022-08-22T08:49:07.039Z,58.01
2022-08-22T08:50:07.124Z,58.94
2022-08-22T08:51:07.017Z,57.64
2022-08-22T08:52:07.030Z,57.54
2022-08-22T08:53:07.003Z,58.21
2022-08-22T08:54:07.048Z,57.41
2022-08-22T08:55:16.012Z,57.61
2022-08-22T08:56:08.160Z,57.78
2022-08-22T08:57:06.979Z,57.15
2022-08-22T08:58:07.278Z,57.03
2022-08-22T08:59:10.337Z,56.51
2022-08-22T09:00:06.994Z,54.26
2022-08-22T09:01:06.972Z,54.60
2022-08-22T09:02:06.957Z,53.69
2022-08-22T09:03:07.364Z,51.65
2022-08-22T09:04:06.908Z,51.50
2022-08-22T09:05:07.884Z,50.70
2022-08-22T09:06:07.046Z,50.01
2022-08-22T09:07:06.884Z,50.65
2022-08-22T09:08:07.044Z,52.26
2022-08-22T09:09:06.845Z,52.47
2022-08-22T09:10:06.848Z,51.79
2022-08-22T09:11:09.687Z,52.51
2022-08-22T09:12:06.968Z,53.16
2022-08-22T09:14:07.890Z,54.53
2022-08-22T09:15:12.834Z,54.74
2022-08-22T09:16:07.780Z,55.96
2022-08-22T09:17:06.901Z,56.23
2022-08-22T09:18:10.784Z,56.03
2022-08-22T09:19:06.766Z,55.21
2022-08-22T09:21:07.976Z,55.68
2022-08-22T09:22:06.803Z,54.16
2022-08-22T09:23:10.026Z,55.58
2022-08-22T09:24:06.727Z,54.26
2022-08-22T09:25:06.685Z,54.36
2022-08-22T09:26:06.744Z,54.53
2022-08-22T09:27:08.457Z,56.59
2022-08-22T09:28:06.685Z,54.78
2022-08-22T09:29:06.647Z,52.09
2022-08-22T09:30:06.694Z,51.00
2022-08-22T09:31:22.199Z,52.09
2022-08-22T09:32:07.717Z,52.49
2022-08-22T09:33:07.700Z,51.42
2022-08-22T09:34:06.721Z,51.30
2022-08-22T09:35:06.611Z,52.00
2022-08-22T09:36:06.758Z,52.49
2022-08-22T09:37:07.569Z,51.79
2022-08-22T09:38:06.591Z,51.89
2022-08-22T09:39:06.921Z,51.57
2022-08-22T09:40:08.500Z,50.38
2022-08-22T09:40:16.105Z,57.97
2022-08-22T09:41:06.524Z,51.87
2022-08-22T09:42:06.706Z,52.09
2022-08-22T09:43:06.493Z,52.51
2022-08-22T09:44:06.651Z,52.42
2022-08-22T09:45:06.566Z,52.42
2022-08-22T09:46:06.480Z,52.29
2022-08-22T09:47:06.488Z,51.47
2022-08-22T09:48:07.623Z,51.07
2022-08-22T09:49:06.505Z,51.60
2022-08-22T09:50:06.488Z,51.89
2022-08-22T09:51:28.617Z,52.39
2022-08-22T09:52:15.344Z,52.22
2022-08-22T09:53:07.399Z,51.22
2022-08-22T09:54:06.440Z,51.72
2022-08-22T09:55:08.093Z,52.44
2022-08-22T09:56:14.990Z,53.24
2022-08-22T09:57:07.360Z,53.64
2022-08-22T09:58:06.517Z,53.46
2022-08-22T09:59:06.678Z,53.56
2022-08-22T10:00:06.369Z,54.26
2022-08-22T10:01:06.351Z,54.66
2022-08-22T10:02:06.376Z,54.83
2022-08-22T10:03:07.303Z,53.31
2022-08-22T10:04:06.392Z,51.72
2022-08-22T10:05:06.317Z,52.62
2022-08-22T10:06:07.263Z,52.81
2022-08-22T10:07:11.757Z,51.62
2022-08-22T10:08:07.255Z,52.22
2022-08-22T10:09:09.032Z,52.42
2022-08-22T10:10:06.229Z,50.80
2022-08-22T10:11:06.625Z,52.09
2022-08-22T10:12:06.215Z,50.31
2022-08-22T10:13:10.521Z,51.28
2022-08-22T10:14:06.258Z,50.05
2022-08-22T10:15:06.950Z,49.16
2022-08-22T10:16:06.160Z,49.78
2022-08-22T10:17:07.173Z,50.26
2022-08-22T10:18:06.195Z,50.16
2022-08-22T10:19:06.130Z,51.65
2022-08-22T10:20:06.192Z,50.45
2022-08-22T10:21:06.113Z,49.93
2022-08-22T10:22:06.142Z,49.32
2022-08-22T10:23:06.099Z,50.98
2022-08-22T10:24:07.310Z,49.86
2022-08-22T10:25:06.086Z,49.05
2022-08-22T10:26:06.133Z,48.25
2022-08-22T10:27:06.075Z,48.35
2022-08-22T10:28:06.166Z,49.76
2022-08-22T10:29:06.071Z,48.97
2022-08-22T10:30:06.038Z,47.56
2022-08-22T10:31:06.474Z,47.09
2022-08-22T10:32:10.728Z,48.00
2022-08-22T10:33:07.018Z,48.50
2022-08-22T10:34:06.086Z,47.80
2022-08-22T10:35:06.358Z,47.41
2022-08-22T10:36:06.061Z,48.69
2022-08-22T10:37:05.981Z,50.06
2022-08-22T10:38:05.954Z,48.35
2022-08-22T10:39:10.981Z,48.15
2022-08-22T10:40:07.308Z,48.35
2022-08-22T10:41:09.657Z,46.67
2022-08-22T10:42:06.060Z,48.15
2022-08-22T10:43:05.914Z,47.75
2022-08-22T10:44:05.946Z,48.25
2022-08-22T10:45:05.895Z,47.26
2022-08-22T10:46:06.793Z,47.06
2022-08-22T10:47:06.865Z,45.38
2022-08-22T10:48:09.738Z,47.56
2022-08-22T10:49:08.225Z,48.67
2022-08-22T10:50:08.706Z,46.00
2022-08-22T10:51:08.990Z,46.59
2022-08-22T10:52:15.307Z,46.79
2022-08-22T10:53:06.831Z,46.59
2022-08-22T10:54:05.874Z,45.40
2022-08-22T10:55:09.758Z,44.90
2022-08-22T10:56:05.790Z,44.90
2022-08-22T10:57:06.760Z,45.10
2022-08-22T10:58:05.819Z,45.30
2022-08-22T10:59:05.777Z,46.09
2022-08-22T11:00:05.765Z,47.36
2022-08-22T11:01:36.960Z,46.94
2022-08-22T11:02:06.841Z,44.27
2022-08-22T11:03:08.747Z,45.16
2022-08-22T11:04:06.789Z,45.57
2022-08-22T11:05:05.696Z,46.37
2022-08-22T11:06:05.689Z,46.17
2022-08-22T11:07:05.675Z,47.28
2022-08-22T11:08:05.686Z,47.88
2022-08-22T11:09:05.648Z,47.09
2022-08-22T11:10:05.649Z,48.18
2022-08-22T11:11:05.629Z,46.19
2022-08-22T11:12:05.627Z,46.98
2022-08-22T11:13:05.619Z,46.69
2022-08-22T11:14:05.613Z,46.79
2022-08-22T11:15:05.597Z,47.68
2022-08-22T11:16:05.621Z,47.38
2022-08-22T11:17:11.998Z,45.20
2022-08-22T11:18:06.648Z,46.69
2022-08-22T11:19:15.211Z,45.12
2022-08-22T11:20:06.643Z,45.23
2022-08-22T11:21:07.328Z,46.49
2022-08-22T11:22:05.534Z,48.05
2022-08-22T11:23:05.527Z,46.17
2022-08-22T11:24:05.547Z,44.46
2022-08-22T11:25:05.512Z,46.64
2022-08-22T11:26:05.517Z,45.16
2022-08-22T11:27:07.334Z,44.17
2022-08-22T11:28:06.503Z,45.75
2022-08-22T11:29:13.495Z,46.12
2022-08-22T11:30:06.687Z,47.29
2022-08-22T11:31:07.179Z,43.79
2022-08-22T11:32:06.269Z,46.23
2022-08-22T11:33:05.531Z,41.36
2022-08-22T11:34:05.788Z,43.05
2022-08-22T11:35:08.883Z,42.97
2022-08-22T11:36:05.666Z,43.29
2022-08-22T11:37:11.757Z,42.48
2022-08-22T11:38:08.892Z,42.56
2022-08-22T11:39:09.930Z,44.32
2022-08-22T11:40:07.866Z,42.82
2022-08-22T11:41:05.752Z,41.89
2022-08-22T11:42:05.922Z,40.98
2022-08-22T11:43:05.984Z,41.00
2022-08-22T11:44:06.567Z,42.02
2022-08-22T11:45:05.318Z,41.43
2022-08-22T11:46:05.305Z,42.22
2022-08-22T11:47:05.287Z,41.73
2022-08-22T11:48:05.309Z,41.65
2022-08-22T11:49:05.280Z,41.38
2022-08-22T11:50:10.710Z,41.79
2022-08-22T11:51:13.136Z,42.30
2022-08-22T11:52:06.279Z,42.88
2022-08-22T11:53:07.639Z,41.57
2022-08-22T11:54:05.277Z,42.66
2022-08-22T11:55:05.212Z,42.96
2022-08-22T11:56:05.546Z,41.93
2022-08-22T11:57:05.202Z,40.62
2022-08-22T11:58:05.201Z,41.22
2022-08-22T11:59:05.230Z,41.33
2022-08-22T12:00:05.192Z,41.55
2022-08-22T12:01:05.172Z,42.19
2022-08-22T12:02:05.191Z,42.70
2022-08-22T12:03:05.155Z,42.60
2022-08-22T12:04:05.173Z,44.09
2022-08-22T12:05:05.146Z,44.64
2022-08-22T12:06:05.146Z,43.09
2022-08-22T12:07:05.120Z,42.54
2022-08-22T12:08:05.118Z,41.33
2022-08-22T12:09:05.118Z,38.99
2022-08-22T12:10:05.187Z,40.78
2022-08-22T12:11:05.086Z,41.09
2022-08-22T12:12:05.167Z,42.10
2022-08-22T12:13:05.068Z,42.10
2022-08-22T12:14:06.385Z,42.38
2022-08-22T12:15:05.049Z,41.27
2022-08-22T12:16:05.047Z,40.86
2022-08-22T12:17:05.040Z,39.86
2022-08-22T12:18:05.037Z,40.08
2022-08-22T12:19:05.032Z,41.77
2022-08-22T12:20:20.163Z,41.45
2022-08-22T12:21:06.018Z,40.86
2022-08-22T12:22:05.003Z,40.47
2022-08-22T12:23:05.371Z,39.97
2022-08-22T12:24:06.247Z,40.69
2022-08-22T12:25:05.972Z,40.90
2022-08-22T12:26:05.038Z,40.69
2022-08-22T12:27:07.821Z,41.17
2022-08-22T12:28:04.990Z,40.80
2022-08-22T12:29:04.962Z,45.06
2022-08-22T12:30:05.990Z,41.12
2022-08-22T12:31:05.939Z,41.41
2022-08-22T12:32:04.925Z,42.00
2022-08-22T12:33:04.914Z,41.12
2022-08-22T12:34:04.914Z,40.94
2022-08-22T12:35:13.776Z,40.66
2022-08-22T12:36:05.996Z,42.05
2022-08-22T12:37:05.869Z,42.05
2022-08-22T12:38:28.602Z,40.86
2022-08-22T12:39:07.806Z,42.24
2022-08-22T12:40:06.287Z,43.33
2022-08-22T12:41:08.138Z,41.06
2022-08-22T12:42:04.836Z,40.96
2022-08-22T12:43:04.821Z,42.14
2022-08-22T12:44:04.865Z,42.82
2022-08-22T12:45:04.813Z,44.25
2022-08-22T12:46:04.801Z,41.75
2022-08-22T12:47:04.784Z,38.78
2022-08-22T12:48:04.797Z,39.17
2022-08-22T12:49:07.618Z,39.56
2022-08-22T12:50:04.754Z,38.09
2022-08-22T12:51:17.589Z,38.68
2022-08-22T12:52:05.725Z,40.16
2022-08-22T12:53:04.725Z,41.00
2022-08-22T12:54:04.738Z,38.52
2022-08-22T12:55:04.717Z,38.23
2022-08-22T12:56:04.834Z,37.76
2022-08-22T12:57:04.748Z,37.97
2022-08-22T12:58:05.722Z,40.96
2022-08-22T12:59:04.686Z,38.91
2022-08-22T13:00:04.678Z,40.80
2022-08-22T13:01:04.726Z,41.00
2022-08-22T13:02:04.653Z,40.43
2022-08-22T13:03:04.637Z,42.30
2022-08-22T13:04:04.640Z,41.61
2022-08-22T13:05:04.630Z,40.51
2022-08-22T13:06:04.619Z,43.05
2022-08-22T13:07:04.591Z,40.21
2022-08-22T13:08:05.153Z,40.62
2022-08-22T13:09:04.592Z,41.04
2022-08-22T13:10:05.573Z,41.06
2022-08-22T13:11:04.678Z,40.96
2022-08-22T13:12:05.546Z,41.67
2022-08-22T13:13:12.340Z,42.36
2022-08-22T13:14:05.578Z,43.96
2022-08-22T13:15:04.515Z,43.07
2022-08-22T13:16:04.697Z,42.78
2022-08-22T13:17:23.677Z,42.78
2022-08-22T13:18:28.402Z,43.45
2022-08-22T13:19:07.777Z,42.56
2022-08-22T13:20:04.502Z,42.66
2022-08-22T13:21:04.479Z,43.62
2022-08-22T13:22:04.469Z,43.31
2022-08-22T13:23:04.441Z,42.32
2022-08-22T13:24:05.442Z,41.63
2022-08-22T13:25:05.431Z,40.96
2022-08-22T13:26:07.566Z,41.83
2022-08-22T13:27:05.720Z,41.63
2022-08-22T13:28:04.673Z,40.96
2022-08-22T13:29:24.723Z,41.75
2022-08-22T13:30:05.393Z,42.16
2022-08-22T13:31:04.362Z,42.56
2022-08-22T13:32:04.384Z,42.16
2022-08-22T13:33:04.344Z,41.57
2022-08-22T13:34:04.345Z,41.97
2022-08-22T13:35:04.872Z,41.47
2022-08-22T13:36:04.358Z,41.77
2022-08-22T13:37:04.307Z,41.47
2022-08-22T13:38:04.552Z,41.57
2022-08-22T13:39:04.278Z,41.57
2022-08-22T13:40:04.581Z,41.67
2022-08-22T13:41:04.260Z,41.08
2022-08-22T13:42:04.260Z,41.36
2022-08-22T13:43:05.240Z,41.04
2022-08-22T13:44:04.253Z,40.35
2022-08-22T13:45:04.583Z,40.72
2022-08-22T13:46:04.231Z,40.62
2022-08-22T13:47:13.766Z,41.02
2022-08-22T13:48:05.218Z,40.15
2022-08-22T13:49:04.183Z,40.55
2022-08-22T13:50:04.206Z,41.46
2022-08-22T13:51:04.162Z,41.46
2022-08-22T13:52:04.169Z,42.93
2022-08-22T13:53:04.157Z,41.36
2022-08-22T13:54:11.283Z,41.85
2022-08-22T13:55:12.292Z,42.93
2022-08-22T13:56:05.118Z,42.24
2022-08-22T13:57:04.098Z,43.62
2022-08-22T13:58:04.722Z,43.05
2022-08-22T13:59:04.098Z,43.05
2022-08-22T14:00:06.584Z,42.56
2022-08-22T14:01:04.109Z,42.85
2022-08-22T14:02:04.164Z,42.36
2022-08-22T14:03:05.696Z,43.45
2022-08-22T14:04:04.035Z,44.14
2022-08-22T14:05:04.265Z,43.84
2022-08-22T14:06:32.409Z,44.04
2022-08-22T14:07:05.090Z,45.40
2022-08-22T14:08:04.412Z,41.73
2022-08-22T14:09:04.981Z,41.93
2022-08-22T14:10:04.383Z,41.24
2022-08-22T14:11:06.753Z,40.84
2022-08-22T14:12:04.053Z,41.14
2022-08-22T14:13:03.936Z,41.25
2022-08-22T14:14:04.016Z,42.64
2022-08-22T14:15:03.918Z,42.44
2022-08-22T14:16:03.975Z,43.52
2022-08-22T14:17:03.900Z,43.23
2022-08-22T14:18:03.897Z,44.04
2022-08-22T14:19:06.310Z,43.13
2022-08-22T14:20:03.957Z,41.85
2022-08-22T14:21:03.872Z,42.14
2022-08-22T14:22:04.848Z,42.24
2022-08-22T14:23:04.754Z,42.05
2022-08-22T14:24:04.037Z,42.26
2022-08-22T14:25:03.820Z,41.87
2022-08-22T14:26:03.830Z,42.76
2022-08-22T14:27:05.082Z,42.46
2022-08-22T14:28:09.221Z,43.65
2022-08-22T14:29:04.792Z,43.45
2022-08-22T14:30:03.793Z,44.64
2022-08-22T14:31:03.756Z,44.24
2022-08-22T14:32:03.777Z,43.55
2022-08-22T14:33:03.737Z,42.76
2022-08-22T14:34:03.735Z,42.16
2022-08-22T14:35:03.737Z,41.57
2022-08-22T14:36:03.735Z,41.97
2022-08-22T14:37:03.686Z,43.65
2022-08-22T14:38:03.694Z,43.74
2022-08-22T14:39:04.678Z,43.35
2022-08-22T14:40:03.687Z,43.05
2022-08-22T14:41:03.662Z,42.46
2022-08-22T14:42:04.226Z,42.96
2022-08-22T14:43:03.630Z,43.55
2022-08-22T14:44:03.647Z,42.76
2022-08-22T14:45:06.653Z,43.35
2022-08-22T14:46:03.621Z,41.87
2022-08-22T14:47:04.144Z,42.46
2022-08-22T14:48:30.309Z,42.16
2022-08-22T14:49:04.572Z,44.24
2022-08-22T14:50:03.736Z,43.84
2022-08-22T14:51:04.045Z,42.16
2022-08-22T14:52:03.553Z,42.66
2022-08-22T14:53:03.523Z,43.45
2022-08-22T14:54:04.164Z,44.14
2022-08-22T14:55:08.048Z,43.74
2022-08-22T14:56:03.538Z,44.43
2022-08-22T14:57:03.495Z,43.73
2022-08-22T14:58:05.942Z,43.03
2022-08-22T14:59:03.492Z,42.64
2022-08-22T15:00:03.938Z,42.93
2022-08-22T15:01:03.458Z,42.83
2022-08-22T15:02:03.485Z,41.55
2022-08-22T15:03:03.429Z,42.83
2022-08-22T15:04:03.547Z,42.14
2022-08-22T15:05:05.621Z,42.14
2022-08-22T15:06:03.421Z,41.85
2022-08-22T15:07:03.388Z,42.64
2022-08-22T15:08:05.433Z,43.13
2022-08-22T15:09:07.811Z,42.64
2022-08-22T15:10:03.547Z,41.95
2022-08-22T15:11:03.364Z,42.74
2022-08-22T15:12:03.864Z,42.54
2022-08-22T15:13:03.317Z,42.83
2022-08-22T15:14:03.324Z,41.46
2022-08-22T15:15:03.305Z,41.25
2022-08-22T15:16:08.021Z,41.46
2022-08-22T15:17:05.491Z,40.86
2022-08-22T15:18:03.402Z,41.25
2022-08-22T15:19:03.325Z,41.46
2022-08-22T15:20:03.276Z,42.93
2022-08-22T15:21:03.238Z,42.83
2022-08-22T15:22:03.247Z,44.02
2022-08-22T15:23:03.463Z,41.55
2022-08-22T15:24:04.296Z,42.44
2022-08-22T15:25:03.231Z,42.64
2022-08-22T15:26:03.655Z,41.75
2022-08-22T15:27:06.638Z,40.76
2022-08-22T15:28:05.337Z,41.65
2022-08-22T15:29:04.303Z,41.75
2022-08-22T15:30:03.251Z,42.14
2022-08-22T15:31:03.664Z,40.96
2022-08-22T15:32:03.211Z,41.55
2022-08-22T15:33:03.115Z,41.36
2022-08-22T15:34:03.105Z,41.85
2022-08-22T15:35:03.157Z,40.56
2022-08-22T15:36:03.161Z,40.96
2022-08-22T15:37:08.343Z,40.86
2022-08-22T15:38:04.171Z,40.69
2022-08-22T15:39:03.058Z,40.98
2022-08-22T15:40:10.307Z,41.28
2022-08-22T15:41:04.029Z,42.07
2022-08-22T15:42:03.067Z,42.66
2022-08-22T15:43:03.011Z,43.05
2022-08-22T15:44:03.133Z,44.24
2022-08-22T15:45:02.989Z,43.25
2022-08-22T15:46:02.987Z,42.85
2022-08-22T15:47:02.981Z,43.05
2022-08-22T15:48:04.514Z,41.97
2022-08-22T15:49:02.949Z,41.77
2022-08-22T15:50:05.460Z,42.26
2022-08-22T15:51:02.931Z,42.46
2022-08-22T15:52:02.938Z,42.46
2022-08-22T15:53:04.802Z,42.56
2022-08-22T15:54:02.953Z,42.29
2022-08-22T15:55:03.936Z,41.59
2022-08-22T15:56:05.032Z,41.99
2022-08-22T15:57:02.876Z,41.30
2022-08-22T15:58:03.013Z,41.30
2022-08-22T15:59:02.848Z,41.69
2022-08-22T16:00:02.868Z,41.49
2022-08-22T16:01:03.816Z,41.69
2022-08-22T16:02:03.237Z,42.88
2022-08-22T16:03:02.810Z,41.89
2022-08-22T16:04:02.819Z,43.47
2022-08-22T16:05:02.785Z,43.27
2022-08-22T16:06:02.800Z,43.27
2022-08-22T16:07:02.780Z,44.28
2022-08-22T16:08:02.845Z,44.68
2022-08-22T16:09:02.829Z,45.67
2022-08-22T16:10:02.751Z,45.07
2022-08-22T16:11:02.720Z,45.37
2022-08-22T16:12:02.793Z,47.54
2022-08-22T16:13:02.704Z,46.55
2022-08-22T16:14:02.801Z,45.67
2022-08-22T16:15:02.683Z,44.97
2022-08-22T16:16:02.685Z,45.17
2022-08-22T16:17:02.698Z,45.76
2022-08-22T16:18:02.707Z,46.55
2022-08-22T16:19:02.638Z,45.47
2022-08-22T16:20:02.686Z,46.75
2022-08-22T16:21:02.645Z,47.54
2022-08-22T16:22:02.643Z,46.66
2022-08-22T16:23:02.605Z,47.05
2022-08-22T16:24:02.633Z,45.96
2022-08-22T16:25:02.579Z,46.66
2022-08-22T16:26:02.589Z,45.39
2022-08-22T16:27:02.576Z,44.97
2022-08-22T16:28:02.555Z,45.59
2022-08-22T16:29:02.564Z,45.19
2022-08-22T16:30:02.896Z,44.90
2022-08-22T16:31:02.518Z,44.10
2022-08-22T16:32:02.509Z,44.01
2022-08-22T16:33:02.491Z,43.79
2022-08-22T16:34:02.488Z,43.69
2022-08-22T16:35:02.480Z,42.90
2022-08-22T16:36:02.471Z,42.60
2022-08-22T16:37:02.472Z,42.99
2022-08-22T16:38:02.433Z,43.29
2022-08-22T16:39:02.424Z,44.18
2022-08-22T16:40:02.531Z,44.18
2022-08-22T16:41:02.423Z,44.68
2022-08-22T16:42:02.503Z,44.78
2022-08-22T16:43:02.387Z,44.78
2022-08-22T16:44:02.469Z,44.97
2022-08-22T16:45:02.426Z,45.76
2022-08-22T16:46:02.370Z,44.78
2022-08-22T16:47:02.348Z,44.78
2022-08-22T16:48:02.366Z,44.48
2022-08-22T16:49:02.329Z,43.98
2022-08-22T16:50:02.328Z,45.17
2022-08-22T16:51:02.320Z,44.58
2022-08-22T16:52:02.340Z,44.09
2022-08-22T16:53:02.285Z,44.18
2022-08-22T16:54:02.272Z,44.97
2022-08-22T16:55:02.261Z,45.76
2022-08-22T16:56:02.282Z,46.55
2022-08-22T16:57:02.240Z,47.37
2022-08-22T16:58:09.435Z,48.36
2022-08-22T16:59:19.342Z,48.65
2022-08-22T17:00:03.211Z,48.26
2022-08-22T17:01:02.183Z,48.85
2022-08-22T17:02:02.194Z,49.05
2022-08-22T17:03:02.163Z,47.66
2022-08-22T17:04:02.174Z,48.36
2022-08-22T17:05:02.174Z,47.47
2022-08-22T17:06:02.225Z,48.55